createdAt,value
2018-07-21T00:00:58.112Z,25.86
2018-07-21T00:01:58.093Z,25.86
2018-07-21T00:02:58.742Z,25.83
2018-07-21T00:12:09.784Z,25.96
2018-07-21T00:12:43.414Z,25.89
2018-07-21T00:13:43.187Z,25.98
2018-07-21T00:14:43.022Z,25.89
2018-07-21T00:15:42.970Z,25.88
2018-07-21T00:16:43.166Z,25.93
2018-07-21T00:17:43.233Z,25.96
2018-07-21T00:27:30.749Z,25.96
2018-07-21T00:28:30.702Z,25.92
2018-07-21T00:29:31.151Z,25.93
2018-07-21T00:30:31.267Z,25.92
2018-07-21T00:31:31.161Z,25.88
2018-07-21T00:32:31.024Z,25.81
2018-07-21T00:42:22.864Z,25.93
2018-07-21T00:43:22.945Z,25.86
2018-07-21T00:44:22.685Z,25.95
2018-07-21T00:45:22.815Z,25.92
2018-07-21T00:46:22.862Z,25.91
2018-07-21T00:47:22.736Z,25.92
2018-07-21T00:57:27.395Z,25.98
2018-07-21T00:58:26.831Z,25.83
2018-07-21T00:59:26.650Z,25.89
2018-07-21T01:00:26.169Z,25.98
2018-07-21T01:01:26.144Z,25.95
2018-07-21T01:02:26.663Z,25.95
2018-07-21T01:03:26.073Z,25.86
2018-07-21T01:04:26.558Z,25.81
2018-07-21T01:05:26.222Z,25.95
2018-07-21T01:07:01.082Z,25.92
2018-07-21T01:07:25.945Z,25.99
2018-07-21T01:08:26.032Z,25.88
2018-07-21T01:09:26.677Z,25.81
2018-07-21T01:17:23.977Z,25.98
2018-07-21T01:17:56.093Z,25.92
2018-07-21T01:18:55.999Z,25.88
2018-07-21T01:19:56.178Z,25.92
2018-07-21T01:20:56.012Z,25.93
2018-07-21T01:21:55.244Z,25.95
2018-07-21T01:22:56.085Z,25.92
2018-07-21T01:32:41.980Z,25.93
2018-07-21T01:33:42.195Z,25.88
2018-07-21T01:34:41.872Z,25.92
2018-07-21T01:35:41.987Z,25.96
2018-07-21T01:36:41.901Z,25.86
2018-07-21T01:37:42.081Z,25.95
2018-07-21T01:47:39.166Z,25.88
2018-07-21T01:48:40.157Z,25.93
2018-07-21T01:49:39.205Z,25.93
2018-07-21T01:50:39.356Z,25.93
2018-07-21T01:51:39.372Z,25.91
2018-07-21T01:52:39.265Z,25.95
2018-07-21T01:53:39.195Z,25.95
2018-07-21T02:02:39.518Z,25.93
2018-07-21T02:03:26.231Z,25.93
2018-07-21T02:04:26.111Z,25.98
2018-07-21T02:05:26.301Z,25.98
2018-07-21T02:06:26.431Z,25.98
2018-07-21T02:07:26.168Z,25.93
2018-07-21T02:08:26.271Z,25.92
2018-07-21T02:17:39.726Z,25.86
2018-07-21T02:18:13.777Z,25.95
2018-07-21T02:19:14.266Z,25.91
2018-07-21T02:20:13.839Z,25.81
2018-07-21T02:22:39.280Z,25.95
2018-07-21T02:23:36.818Z,25.96
2018-07-21T02:24:36.534Z,25.93
2018-07-21T02:25:36.748Z,25.95
2018-07-21T02:26:36.509Z,25.91
2018-07-21T02:27:36.761Z,25.96
2018-07-21T02:28:36.548Z,25.96
2018-07-21T02:29:36.616Z,25.91
2018-07-21T02:31:35.785Z,25.96
2018-07-21T02:32:35.638Z,25.98
2018-07-21T02:33:35.947Z,25.96
2018-07-21T02:34:37.035Z,25.92
2018-07-21T02:35:36.167Z,25.96
2018-07-21T02:36:36.155Z,25.95
2018-07-21T02:42:49.710Z,25.96
2018-07-21T02:43:45.797Z,26.03
2018-07-21T02:44:45.668Z,25.99
2018-07-21T02:45:45.642Z,25.91
2018-07-21T02:46:45.574Z,25.92
2018-07-21T02:47:46.307Z,25.93
2018-07-21T02:48:45.944Z,25.92
2018-07-21T02:56:10.715Z,25.95
2018-07-21T02:57:11.662Z,25.96
2018-07-21T02:58:10.081Z,25.92
2018-07-21T02:59:10.811Z,25.95
2018-07-21T03:00:10.718Z,25.96
2018-07-21T03:01:10.332Z,25.96
2018-07-21T03:02:10.672Z,25.95
2018-07-21T03:03:10.870Z,25.91
2018-07-21T03:04:10.398Z,25.86
2018-07-21T03:05:10.466Z,25.92
2018-07-21T03:06:10.515Z,25.91
2018-07-21T03:07:10.708Z,25.96
2018-07-21T03:17:04.015Z,25.99
2018-07-21T03:18:04.395Z,25.95
2018-07-21T03:19:03.867Z,25.96
2018-07-21T03:20:03.989Z,25.96
2018-07-21T03:21:03.864Z,25.95
2018-07-21T03:22:03.900Z,25.92
2018-07-21T03:32:01.540Z,25.92
2018-07-21T03:33:00.860Z,25.91
2018-07-21T03:34:00.687Z,25.92
2018-07-21T03:35:00.929Z,25.93
2018-07-21T03:36:00.868Z,25.98
2018-07-21T03:37:00.743Z,25.98
2018-07-21T03:47:04.843Z,25.93
2018-07-21T03:48:04.216Z,26.01
2018-07-21T03:49:04.263Z,25.92
2018-07-21T03:50:04.369Z,25.96
2018-07-21T03:51:04.487Z,25.93
2018-07-21T03:52:03.738Z,25.93
2018-07-21T03:53:03.754Z,25.98
2018-07-21T04:02:04.433Z,25.99
2018-07-21T04:02:51.226Z,26.06
2018-07-21T04:03:51.185Z,25.96
2018-07-21T04:04:51.678Z,25.96
2018-07-21T04:05:51.508Z,25.99
2018-07-21T04:06:54.528Z,25.98
2018-07-21T04:17:24.875Z,25.96
2018-07-21T04:18:24.075Z,25.98
2018-07-21T04:19:25.940Z,25.89
2018-07-21T04:20:24.849Z,25.92
2018-07-21T04:21:25.031Z,25.98
2018-07-21T04:22:24.934Z,25.92
2018-07-21T04:31:14.828Z,25.93
2018-07-21T04:32:09.363Z,25.95
2018-07-21T04:33:09.902Z,25.92
2018-07-21T04:34:09.699Z,25.92
2018-07-21T04:35:09.323Z,25.93
2018-07-21T04:36:09.396Z,25.91
2018-07-21T04:37:09.444Z,25.92
2018-07-21T04:38:09.269Z,25.91
2018-07-21T04:39:10.591Z,25.95
2018-07-21T04:40:10.334Z,25.89
2018-07-21T04:41:10.292Z,25.91
2018-07-21T04:42:10.958Z,25.92
2018-07-21T04:51:21.281Z,25.99
2018-07-21T04:51:55.288Z,25.93
2018-07-21T04:52:55.578Z,25.93
2018-07-21T04:53:55.699Z,25.96
2018-07-21T04:54:55.349Z,25.99
2018-07-21T04:55:55.586Z,25.81
2018-07-21T04:56:55.743Z,25.93
2018-07-21T05:03:27.579Z,25.95
2018-07-21T05:04:06.251Z,25.99
2018-07-21T05:05:06.273Z,25.92
2018-07-21T05:06:06.278Z,25.92
2018-07-21T05:07:06.968Z,25.95
2018-07-21T05:08:08.222Z,25.92
2018-07-21T05:09:06.257Z,25.95
2018-07-21T05:15:29.552Z,25.95
2018-07-21T05:16:14.637Z,25.93
2018-07-21T05:17:14.497Z,25.93
2018-07-21T05:18:14.430Z,25.92
2018-07-21T05:19:14.473Z,25.96
2018-07-21T05:20:14.441Z,25.89
2018-07-21T05:21:14.360Z,25.89
2018-07-21T05:27:37.058Z,25.92
2018-07-21T05:28:23.760Z,25.95
2018-07-21T05:29:24.041Z,25.95
2018-07-21T05:30:23.758Z,25.95
2018-07-21T05:31:23.985Z,25.95
2018-07-21T05:32:22.831Z,25.95
2018-07-21T05:33:23.034Z,25.98
2018-07-21T05:35:00.395Z,25.92
2018-07-21T05:35:22.504Z,25.99
2018-07-21T05:36:22.404Z,25.93
2018-07-21T05:37:22.456Z,25.96
2018-07-21T05:38:22.475Z,25.88
2018-07-21T05:39:22.446Z,25.95
2018-07-21T05:40:22.435Z,25.93
2018-07-21T05:41:22.379Z,25.93
2018-07-21T05:42:22.386Z,25.96
2018-07-21T05:43:22.463Z,25.95
2018-07-21T05:44:22.425Z,25.92
2018-07-21T05:45:22.473Z,25.96
2018-07-21T05:46:22.485Z,25.96
2018-07-21T05:47:22.641Z,26.01
2018-07-21T05:48:22.902Z,25.98
2018-07-21T05:49:23.252Z,25.96
2018-07-21T05:50:22.857Z,25.96
2018-07-21T05:51:23.376Z,25.92
2018-07-21T05:52:23.625Z,25.91
2018-07-21T05:53:26.613Z,25.96
2018-07-21T05:54:22.719Z,25.98
2018-07-21T05:55:22.912Z,25.96
2018-07-21T05:56:22.945Z,25.92
2018-07-21T05:57:24.027Z,25.92
2018-07-21T05:58:23.644Z,25.99
2018-07-21T06:00:25.836Z,25.96
2018-07-21T06:01:25.312Z,25.95
2018-07-21T06:02:25.562Z,26.04
2018-07-21T06:03:25.722Z,25.98
2018-07-21T06:04:25.971Z,25.98
2018-07-21T06:05:25.749Z,25.93
2018-07-21T06:06:25.841Z,25.98
2018-07-21T06:09:42.998Z,25.93
2018-07-21T06:10:41.799Z,26.1
2018-07-21T06:11:42.505Z,25.95
2018-07-21T06:12:42.193Z,26.01
2018-07-21T06:13:42.473Z,25.96
2018-07-21T06:14:42.543Z,25.95
2018-07-21T06:21:59.582Z,25.96
2018-07-21T06:22:59.466Z,25.98
2018-07-21T06:23:59.266Z,25.96
2018-07-21T06:24:58.991Z,25.95
2018-07-21T06:25:58.987Z,25.96
2018-07-21T06:26:59.102Z,26.01
2018-07-21T06:34:09.821Z,25.93
2018-07-21T06:35:10.013Z,26.01
2018-07-21T06:36:10.444Z,25.93
2018-07-21T06:37:10.022Z,25.98
2018-07-21T06:38:10.395Z,25.93
2018-07-21T06:45:41.303Z,25.96
2018-07-21T06:45:54.638Z,25.92
2018-07-21T06:46:54.725Z,25.91
2018-07-21T06:47:55.004Z,25.96
2018-07-21T06:48:56.053Z,25.92
2018-07-21T06:49:56.073Z,25.96
2018-07-21T06:50:55.733Z,25.92
2018-07-21T06:51:55.892Z,25.95
2018-07-21T06:52:55.526Z,25.96
2018-07-21T06:53:55.756Z,25.96
2018-07-21T06:54:55.393Z,25.95
2018-07-21T06:55:55.630Z,25.93
2018-07-21T06:56:54.600Z,25.99
2018-07-21T07:05:23.767Z,25.96
2018-07-21T07:06:24.076Z,25.96
2018-07-21T07:07:23.804Z,25.95
2018-07-21T07:08:23.716Z,25.99
2018-07-21T07:09:23.933Z,25.99
2018-07-21T07:10:23.954Z,25.98
2018-07-21T07:17:05.446Z,25.93
2018-07-21T07:17:32.379Z,25.99
2018-07-21T07:18:31.812Z,26.06
2018-07-21T07:19:31.870Z,25.92
2018-07-21T07:20:31.966Z,25.96
2018-07-21T07:21:31.958Z,26.07
2018-07-21T07:29:25.803Z,25.95
2018-07-21T07:30:25.771Z,25.96
2018-07-21T07:31:25.858Z,25.95
2018-07-21T07:32:25.826Z,25.96
2018-07-21T07:33:25.797Z,25.98
2018-07-21T07:34:26.237Z,25.98
2018-07-21T07:41:36.941Z,26.01
2018-07-21T07:42:36.414Z,25.95
2018-07-21T07:43:36.219Z,25.95
2018-07-21T07:44:36.137Z,25.99
2018-07-21T07:45:35.967Z,26.01
2018-07-21T07:46:35.886Z,25.96
2018-07-21T07:53:19.785Z,25.99
2018-07-21T07:53:46.001Z,25.93
2018-07-21T07:54:45.562Z,25.96
2018-07-21T07:55:45.799Z,25.93
2018-07-21T07:56:46.034Z,25.92
2018-07-21T07:57:45.791Z,25.99
2018-07-21T07:58:46.102Z,25.98
2018-07-21T08:05:22.447Z,25.93
2018-07-21T08:05:56.069Z,25.92
2018-07-21T08:06:56.460Z,25.95
2018-07-21T08:07:57.243Z,25.95
2018-07-21T08:08:56.715Z,25.93
2018-07-21T08:09:56.338Z,25.95
2018-07-21T08:10:56.423Z,25.98
2018-07-21T08:17:20.367Z,25.95
2018-07-21T08:18:08.070Z,25.95
2018-07-21T08:19:08.105Z,25.92
2018-07-21T08:20:10.843Z,25.99
2018-07-21T08:21:07.578Z,25.95
2018-07-21T08:22:06.997Z,25.95
2018-07-21T08:23:07.668Z,25.95
2018-07-21T08:29:32.990Z,26.04
2018-07-21T08:30:19.686Z,25.99
2018-07-21T08:31:19.820Z,26.01
2018-07-21T08:32:22.220Z,25.96
2018-07-21T08:33:19.749Z,25.98
2018-07-21T08:34:19.793Z,26.01
2018-07-21T08:35:19.903Z,25.99
2018-07-21T08:41:37.223Z,26.03
2018-07-21T08:42:29.218Z,25.96
2018-07-21T08:43:29.814Z,26.07
2018-07-21T08:44:29.764Z,26.13
2018-07-21T08:45:38.611Z,26.08
2018-07-21T08:46:29.226Z,26.1
2018-07-21T08:47:33.757Z,26.04
2018-07-21T08:48:29.128Z,25.95
2018-07-21T08:49:29.517Z,25.96
2018-07-21T08:50:30.083Z,25.93
2018-07-21T08:51:29.395Z,25.95
2018-07-21T08:52:30.616Z,25.98
2018-07-21T08:53:29.664Z,25.96
2018-07-21T08:54:29.836Z,25.95
2018-07-21T08:55:29.051Z,25.95
2018-07-21T08:56:29.092Z,25.98
2018-07-21T08:57:29.064Z,26.06
2018-07-21T08:58:28.965Z,25.96
2018-07-21T08:59:29.077Z,26.01
2018-07-21T09:00:29.035Z,25.96
2018-07-21T09:01:29.037Z,25.95
2018-07-21T09:02:28.956Z,25.99
2018-07-21T09:03:29.030Z,26.06
2018-07-21T09:04:29.024Z,25.95
2018-07-21T09:05:31.632Z,26.06
2018-07-21T09:06:29.035Z,26.04
2018-07-21T09:07:29.043Z,25.96
2018-07-21T09:08:29.060Z,26.11
2018-07-21T09:09:29.314Z,26.15
2018-07-21T09:10:29.033Z,26.01
2018-07-21T09:11:29.115Z,26.06
2018-07-21T09:12:29.344Z,26.11
2018-07-21T09:13:29.154Z,26.03
2018-07-21T09:14:29.095Z,26.07
2018-07-21T09:15:29.181Z,25.99
2018-07-21T09:16:29.176Z,25.95
2018-07-21T09:17:29.153Z,26.03
2018-07-21T09:18:29.070Z,25.96
2018-07-21T09:19:29.293Z,25.98
2018-07-21T09:20:29.164Z,25.98
2018-07-21T09:21:29.294Z,25.99
2018-07-21T09:22:29.251Z,25.93
2018-07-21T09:23:29.123Z,25.93
2018-07-21T09:24:29.100Z,25.95
2018-07-21T09:25:29.099Z,25.92
2018-07-21T09:26:29.102Z,25.93
2018-07-21T09:27:29.084Z,25.95
2018-07-21T09:28:29.188Z,25.96
2018-07-21T09:29:31.640Z,25.95
2018-07-21T09:30:29.093Z,25.91
2018-07-21T09:31:29.213Z,25.92
2018-07-21T09:32:29.135Z,25.89
2018-07-21T09:33:29.107Z,25.98
2018-07-21T09:34:29.202Z,25.96
2018-07-21T09:35:29.058Z,25.93
2018-07-21T09:36:29.211Z,25.91
2018-07-21T09:37:29.314Z,25.83
2018-07-21T09:38:29.150Z,25.91
2018-07-21T09:39:29.375Z,25.91
2018-07-21T09:40:29.103Z,25.95
2018-07-21T09:41:29.156Z,25.98
2018-07-21T09:42:29.096Z,25.89
2018-07-21T09:43:29.119Z,25.96
2018-07-21T09:44:29.078Z,25.98
2018-07-21T09:45:29.061Z,25.89
2018-07-21T09:46:29.092Z,25.92
2018-07-21T09:47:29.144Z,25.93
2018-07-21T09:48:29.122Z,25.91
2018-07-21T09:49:29.109Z,25.98
2018-07-21T09:50:29.165Z,25.86
2018-07-21T09:51:29.128Z,25.93
2018-07-21T09:52:29.173Z,25.86
2018-07-21T09:53:29.136Z,25.83
2018-07-21T09:54:29.473Z,25.88
2018-07-21T09:55:29.302Z,25.99
2018-07-21T09:56:29.158Z,25.99
2018-07-21T09:57:29.162Z,25.91
2018-07-21T09:58:29.548Z,25.78
2018-07-21T09:59:29.226Z,25.74
2018-07-21T10:00:29.212Z,25.73
2018-07-21T10:01:29.241Z,25.62
2018-07-21T10:02:29.236Z,25.63
2018-07-21T10:03:29.234Z,25.55
2018-07-21T10:04:29.152Z,25.51
2018-07-21T10:05:29.186Z,25.51
2018-07-21T10:06:29.257Z,25.43
2018-07-21T10:07:29.181Z,25.52
2018-07-21T10:08:29.253Z,25.46
2018-07-21T10:13:46.635Z,25.44
2018-07-21T10:13:59.009Z,25.43
2018-07-21T10:14:59.077Z,25.46
2018-07-21T10:15:59.075Z,25.52
2018-07-21T10:16:59.154Z,25.52
2018-07-21T10:17:59.069Z,25.41
2018-07-21T10:18:59.096Z,25.3
2018-07-21T10:19:59.106Z,25.3
2018-07-21T10:20:59.150Z,25.21
2018-07-21T10:21:59.183Z,25.33
2018-07-21T10:22:59.038Z,25.26
2018-07-21T10:23:59.075Z,25.31
2018-07-21T10:24:58.934Z,25.18
2018-07-21T10:25:59.026Z,25.07
2018-07-21T10:26:58.974Z,25.15
2018-07-21T10:27:58.958Z,25.11
2018-07-21T10:28:59.017Z,25.04
2018-07-21T10:29:59.013Z,24.97
2018-07-21T10:30:59.032Z,25.01
2018-07-21T10:31:59.014Z,24.93
2018-07-21T10:32:59.091Z,24.86
2018-07-21T10:33:59.216Z,24.81
2018-07-21T10:34:59.047Z,24.88
2018-07-21T10:38:06.652Z,24.79
2018-07-21T10:42:37.580Z,24.71
2018-07-21T10:43:37.432Z,24.65
2018-07-21T10:44:37.565Z,24.61
2018-07-21T10:45:37.402Z,24.44
2018-07-21T10:46:37.468Z,24.53
2018-07-21T10:47:37.381Z,24.48
2018-07-21T10:48:37.401Z,24.56
2018-07-21T10:49:37.488Z,24.4
2018-07-21T10:50:37.424Z,24.43
2018-07-21T10:51:37.523Z,24.43
2018-07-21T10:52:37.509Z,24.46
2018-07-21T10:53:37.434Z,24.53
2018-07-21T10:54:37.384Z,24.48
2018-07-21T10:55:37.395Z,24.5
2018-07-21T10:56:37.407Z,24.5
2018-07-21T10:57:37.388Z,24.62
2018-07-21T10:58:37.381Z,24.63
2018-07-21T10:59:37.435Z,24.68
2018-07-21T11:00:37.448Z,24.63
2018-07-21T11:01:37.455Z,24.66
2018-07-21T11:02:37.422Z,24.71
2018-07-21T11:03:37.429Z,24.75
2018-07-21T11:04:37.421Z,24.74
2018-07-21T11:05:37.474Z,24.63
2018-07-21T11:06:37.501Z,24.71
2018-07-21T11:07:37.474Z,24.71
2018-07-21T11:08:37.524Z,24.81
2018-07-21T11:09:37.527Z,24.81
2018-07-21T11:10:37.470Z,24.84
2018-07-21T11:11:37.415Z,24.82
2018-07-21T11:12:38.502Z,24.85
2018-07-21T11:13:37.474Z,24.89
2018-07-21T11:14:37.494Z,24.93
2018-07-21T11:15:37.715Z,24.93
2018-07-21T11:16:37.552Z,24.86
2018-07-21T11:17:37.512Z,24.89
2018-07-21T11:18:37.552Z,24.81
2018-07-21T11:19:38.168Z,24.71
2018-07-21T11:20:37.531Z,24.88
2018-07-21T11:21:37.471Z,24.81
2018-07-21T11:22:37.445Z,24.85
2018-07-21T11:23:38.123Z,24.89
2018-07-21T11:24:37.570Z,24.97
2018-07-21T11:25:37.479Z,24.79
2018-07-21T11:26:37.528Z,24.86
2018-07-21T11:27:37.445Z,24.89
2018-07-21T11:28:37.541Z,24.93
2018-07-21T11:29:37.449Z,24.94
2018-07-21T11:30:37.453Z,24.97
2018-07-21T11:31:37.490Z,24.89
2018-07-21T11:32:37.531Z,24.92
2018-07-21T11:33:37.513Z,24.94
2018-07-21T11:34:37.516Z,24.89
2018-07-21T11:35:37.734Z,24.74
2018-07-21T11:36:37.629Z,24.62
2018-07-21T11:37:37.467Z,24.77
2018-07-21T11:38:37.546Z,24.85
2018-07-21T11:39:37.519Z,24.93
2018-07-21T11:40:37.518Z,24.81
2018-07-21T11:41:37.531Z,24.84
2018-07-21T11:42:37.530Z,24.85
2018-07-21T11:43:37.823Z,24.97
2018-07-21T11:44:37.665Z,24.85
2018-07-21T11:45:37.521Z,24.96
2018-07-21T11:46:37.531Z,24.85
2018-07-21T11:47:37.526Z,24.78
2018-07-21T11:48:37.539Z,24.62
2018-07-21T11:49:37.591Z,24.43
2018-07-21T11:50:37.493Z,24.31
2018-07-21T11:51:37.485Z,24.21
2018-07-21T11:52:37.502Z,24.09
2018-07-21T11:53:37.533Z,24.16
2018-07-21T11:54:37.569Z,24.22
2018-07-21T11:55:37.547Z,24.24
2018-07-21T11:56:37.594Z,24.04
2018-07-21T11:57:37.537Z,24.01
2018-07-21T11:58:37.530Z,23.88
2018-07-21T11:59:40.621Z,23.94
2018-07-21T12:00:37.517Z,23.95
2018-07-21T12:01:37.515Z,24.1
2018-07-21T12:02:37.561Z,24
2018-07-21T12:03:37.655Z,23.86
2018-07-21T12:04:37.580Z,23.99
2018-07-21T12:05:37.663Z,24.11
2018-07-21T12:06:38.111Z,24.14
2018-07-21T12:07:37.568Z,24.06
2018-07-21T12:08:37.604Z,23.95
2018-07-21T12:09:37.508Z,23.82
2018-07-21T12:10:37.582Z,23.79
2018-07-21T12:11:37.588Z,23.81
2018-07-21T12:12:37.553Z,23.81
2018-07-21T12:13:37.789Z,23.73
2018-07-21T12:14:37.622Z,23.7
2018-07-21T12:15:37.538Z,23.63
2018-07-21T12:16:37.518Z,23.59
2018-07-21T12:17:37.552Z,23.52
2018-07-21T12:18:37.560Z,23.66
2018-07-21T12:19:37.538Z,23.76
2018-07-21T12:20:37.576Z,23.73
2018-07-21T12:21:37.585Z,23.85
2018-07-21T12:22:37.517Z,23.73
2018-07-21T12:23:37.592Z,23.71
2018-07-21T12:24:38.539Z,23.59
2018-07-21T12:25:37.615Z,23.55
2018-07-21T12:26:37.691Z,23.49
2018-07-21T12:27:37.729Z,23.47
2018-07-21T12:28:37.632Z,23.47
2018-07-21T12:29:37.617Z,23.4
2018-07-21T12:30:37.616Z,23.39
2018-07-21T12:31:37.622Z,23.39
2018-07-21T12:32:37.582Z,23.47
2018-07-21T12:33:37.786Z,23.49
2018-07-21T12:34:37.580Z,23.42
2018-07-21T12:35:37.610Z,23.49
2018-07-21T12:36:37.632Z,23.69
2018-07-21T12:37:37.659Z,23.69
2018-07-21T12:38:37.708Z,23.64
2018-07-21T12:39:37.645Z,23.59
2018-07-21T12:40:37.616Z,23.58
2018-07-21T12:41:37.592Z,23.67
2018-07-21T12:42:37.595Z,23.86
2018-07-21T12:43:38.664Z,23.7
2018-07-21T12:44:38.078Z,23.56
2018-07-21T12:45:37.616Z,23.58
2018-07-21T12:46:37.637Z,23.54
2018-07-21T12:47:37.649Z,23.45
2018-07-21T12:48:37.629Z,23.47
2018-07-21T12:49:37.637Z,23.34
2018-07-21T12:50:38.223Z,23.39
2018-07-21T12:51:37.614Z,23.26
2018-07-21T12:52:37.676Z,23.32
2018-07-21T12:53:37.692Z,23.44
2018-07-21T12:54:37.757Z,23.42
2018-07-21T12:55:37.652Z,23.45
2018-07-21T12:56:37.728Z,23.34
2018-07-21T12:57:37.650Z,23.28
2018-07-21T12:58:37.696Z,23.44
2018-07-21T12:59:37.669Z,23.4
2018-07-21T13:00:37.650Z,23.36
2018-07-21T13:01:37.651Z,23.21
2018-07-21T13:02:38.258Z,23.32
2018-07-21T13:03:37.630Z,23.2
2018-07-21T13:04:37.662Z,23.11
2018-07-21T13:05:37.698Z,23.1
2018-07-21T13:06:37.980Z,23.29
2018-07-21T13:07:37.640Z,23.29
2018-07-21T13:08:37.655Z,23.29
2018-07-21T13:09:37.650Z,23.42
2018-07-21T13:10:37.664Z,23.55
2018-07-21T13:11:37.640Z,23.67
2018-07-21T13:12:37.773Z,23.62
2018-07-21T13:13:37.723Z,23.47
2018-07-21T13:14:37.633Z,23.37
2018-07-21T13:15:37.781Z,23.37
2018-07-21T13:16:37.732Z,23.4
2018-07-21T13:17:37.681Z,23.55
2018-07-21T13:18:37.721Z,23.64
2018-07-21T13:19:37.792Z,23.62
2018-07-21T13:20:37.697Z,23.58
2018-07-21T13:21:37.731Z,23.51
2018-07-21T13:22:37.644Z,23.71
2018-07-21T13:23:37.709Z,23.54
2018-07-21T13:24:37.655Z,23.66
2018-07-21T13:25:37.700Z,23.62
2018-07-21T13:26:37.709Z,23.55
2018-07-21T13:27:37.712Z,23.55
2018-07-21T13:28:37.742Z,23.69
2018-07-21T13:29:37.654Z,23.56
2018-07-21T13:30:37.729Z,23.64
2018-07-21T13:31:38.499Z,23.47
2018-07-21T13:32:37.678Z,23.47
2018-07-21T13:33:37.713Z,23.4
2018-07-21T13:34:38.020Z,23.37
2018-07-21T13:35:37.698Z,23.42
2018-07-21T13:36:37.740Z,23.36
2018-07-21T13:37:37.737Z,23.34
2018-07-21T13:38:37.716Z,23.25
2018-07-21T13:39:37.713Z,23.25
2018-07-21T13:40:37.732Z,23.34
2018-07-21T13:41:37.764Z,23.4
2018-07-21T13:42:37.695Z,23.45
2018-07-21T13:43:37.704Z,23.62
2018-07-21T13:44:37.715Z,23.59
2018-07-21T13:45:37.854Z,23.58
2018-07-21T13:46:37.699Z,23.54
2018-07-21T13:47:37.728Z,23.47
2018-07-21T13:48:37.787Z,23.44
2018-07-21T13:49:37.721Z,23.7
2018-07-21T13:50:37.747Z,23.73
2018-07-21T13:51:37.698Z,23.54
2018-07-21T13:52:37.731Z,23.66
2018-07-21T13:53:37.738Z,23.84
2018-07-21T13:54:37.744Z,23.82
2018-07-21T13:55:37.757Z,23.85
2018-07-21T13:56:37.733Z,23.85
2018-07-21T13:57:37.803Z,23.76
2018-07-21T13:58:37.770Z,23.84
2018-07-21T13:59:37.739Z,23.88
2018-07-21T14:00:37.787Z,23.85
2018-07-21T14:01:37.873Z,23.88
2018-07-21T14:02:38.318Z,23.89
2018-07-21T14:03:37.771Z,23.79
2018-07-21T14:04:37.784Z,23.73
2018-07-21T14:05:37.749Z,23.86
2018-07-21T14:06:37.801Z,23.77
2018-07-21T14:07:37.726Z,23.63
2018-07-21T14:08:37.841Z,23.54
2018-07-21T14:09:37.747Z,23.51
2018-07-21T14:10:37.760Z,23.64
2018-07-21T14:11:37.801Z,23.51
2018-07-21T14:12:37.796Z,23.37
2018-07-21T14:13:37.812Z,23.4
2018-07-21T14:14:38.470Z,23.39
2018-07-21T14:15:37.788Z,23.32
2018-07-21T14:16:37.787Z,23.21
2018-07-21T14:17:37.799Z,23.26
2018-07-21T14:18:37.803Z,23.34
2018-07-21T14:19:37.753Z,23.34
2018-07-21T14:20:37.873Z,23.29
2018-07-21T14:21:37.798Z,23.33
2018-07-21T14:22:37.795Z,23.36
2018-07-21T14:23:37.815Z,23.4
2018-07-21T14:24:37.836Z,23.34
2018-07-21T14:25:37.809Z,23.44
2018-07-21T14:26:37.812Z,23.45
2018-07-21T14:27:37.848Z,23.39
2018-07-21T14:28:37.788Z,23.37
2018-07-21T14:29:37.992Z,23.36
2018-07-21T14:30:37.777Z,23.28
2018-07-21T14:31:37.810Z,23.32
2018-07-21T14:32:37.791Z,23.32
2018-07-21T14:33:37.771Z,23.26
2018-07-21T14:34:37.828Z,23.34
2018-07-21T14:35:37.890Z,23.23
2018-07-21T14:36:38.026Z,23.44
2018-07-21T14:37:37.857Z,23.37
2018-07-21T14:38:37.860Z,23.21
2018-07-21T14:39:37.757Z,23.37
2018-07-21T14:40:37.836Z,23.25
2018-07-21T14:41:37.849Z,23.34
2018-07-21T14:42:37.784Z,23.32
2018-07-21T14:43:37.786Z,23.32
2018-07-21T14:44:37.872Z,23.32
2018-07-21T14:45:37.800Z,23.08
2018-07-21T14:46:37.802Z,23.1
2018-07-21T14:47:37.823Z,23.25
2018-07-21T14:48:37.904Z,23.26
2018-07-21T14:49:37.835Z,23.4
2018-07-21T14:50:37.833Z,23.49
2018-07-21T14:51:37.786Z,23.32
2018-07-21T14:52:37.823Z,23.33
2018-07-21T14:53:37.819Z,23.08
2018-07-21T14:54:37.986Z,23.21
2018-07-21T14:55:37.866Z,23.25
2018-07-21T14:56:37.881Z,23.4
2018-07-21T14:57:37.878Z,23.37
2018-07-21T14:58:37.863Z,23.55
2018-07-21T14:59:37.832Z,23.47
2018-07-21T15:00:37.830Z,23.51
2018-07-21T15:01:37.975Z,23.64
2018-07-21T15:02:37.910Z,23.7
2018-07-21T15:03:37.824Z,23.48
2018-07-21T15:04:37.832Z,23.44
2018-07-21T15:05:37.867Z,23.42
2018-07-21T15:06:37.941Z,23.32
2018-07-21T15:07:37.846Z,23.33
2018-07-21T15:08:37.915Z,23.39
2018-07-21T15:09:38.004Z,23.23
2018-07-21T15:10:37.913Z,23.11
2018-07-21T15:11:37.941Z,23.08
2018-07-21T15:12:37.911Z,23.18
2018-07-21T15:13:37.892Z,23.26
2018-07-21T15:14:37.921Z,23.08
2018-07-21T15:15:37.889Z,23.28
2018-07-21T15:16:38.060Z,23.36
2018-07-21T15:17:37.990Z,23.47
2018-07-21T15:18:37.883Z,23.52
2018-07-21T15:19:37.892Z,23.64
2018-07-21T15:20:37.974Z,23.63
2018-07-21T15:21:37.938Z,23.69
2018-07-21T15:22:38.877Z,23.73
2018-07-21T15:23:37.919Z,23.81
2018-07-21T15:24:37.938Z,23.85
2018-07-21T15:25:37.924Z,23.88
2018-07-21T15:26:37.938Z,23.81
2018-07-21T15:27:38.039Z,23.71
2018-07-21T15:28:37.987Z,23.84
2018-07-21T15:29:38.147Z,23.73
2018-07-21T15:30:37.931Z,23.71
2018-07-21T15:31:37.901Z,23.85
2018-07-21T15:32:37.975Z,23.86
2018-07-21T15:33:37.980Z,23.62
2018-07-21T15:34:37.973Z,23.58
2018-07-21T15:35:37.930Z,23.73
2018-07-21T15:36:37.923Z,23.66
2018-07-21T15:37:37.972Z,23.59
2018-07-21T15:38:37.888Z,23.7
2018-07-21T15:39:38.060Z,23.73
2018-07-21T15:40:37.962Z,23.77
2018-07-21T15:41:38.389Z,23.69
2018-07-21T15:42:38.619Z,23.73
2018-07-21T15:43:37.918Z,23.71
2018-07-21T15:44:37.923Z,23.76
2018-07-21T15:45:37.924Z,23.66
2018-07-21T15:46:37.930Z,23.7
2018-07-21T15:47:37.902Z,23.67
2018-07-21T15:48:37.956Z,23.77
2018-07-21T15:49:37.956Z,23.81
2018-07-21T15:50:37.949Z,23.59
2018-07-21T15:51:37.898Z,23.56
2018-07-21T15:52:37.977Z,23.7
2018-07-21T15:53:37.973Z,23.62
2018-07-21T15:54:37.979Z,23.69
2018-07-21T15:55:37.928Z,23.71
2018-07-21T15:56:37.960Z,23.55
2018-07-21T15:57:37.990Z,23.54
2018-07-21T15:58:37.974Z,23.55
2018-07-21T15:59:37.935Z,23.59
2018-07-21T16:00:37.987Z,23.66
2018-07-21T16:01:38.052Z,23.73
2018-07-21T16:02:38.104Z,23.81
2018-07-21T16:03:37.978Z,23.66
2018-07-21T16:04:37.965Z,23.62
2018-07-21T16:05:37.946Z,23.51
2018-07-21T16:06:37.999Z,23.49
2018-07-21T16:07:37.943Z,23.48
2018-07-21T16:08:38.167Z,23.48
2018-07-21T16:09:38.128Z,23.42
2018-07-21T16:10:38.029Z,23.49
2018-07-21T16:11:37.999Z,23.52
2018-07-21T16:12:38.654Z,23.59
2018-07-21T16:13:38.711Z,23.66
2018-07-21T16:14:38.035Z,23.66
2018-07-21T16:15:38.007Z,23.67
2018-07-21T16:16:39.154Z,23.66
2018-07-21T16:17:38.054Z,23.67
2018-07-21T16:18:38.110Z,23.7
2018-07-21T16:19:37.944Z,23.85
2018-07-21T16:20:38.018Z,23.86
2018-07-21T16:21:38.179Z,23.77
2018-07-21T16:22:38.097Z,23.71
2018-07-21T16:23:38.025Z,23.55
2018-07-21T16:24:38.047Z,23.49
2018-07-21T16:25:37.995Z,23.42
2018-07-21T16:26:38.046Z,23.36
2018-07-21T16:27:38.165Z,23.49
2018-07-21T16:28:39.133Z,23.55
2018-07-21T16:29:43.426Z,23.56
2018-07-21T16:30:39.710Z,23.52
2018-07-21T16:31:38.198Z,23.55
2018-07-21T16:32:38.643Z,23.62
2018-07-21T16:33:41.592Z,23.58
2018-07-21T16:34:38.397Z,23.49
2018-07-21T16:35:38.048Z,23.44
2018-07-21T16:36:39.034Z,23.54
2018-07-21T16:37:38.061Z,23.64
2018-07-21T16:38:38.090Z,23.7
2018-07-21T16:39:38.138Z,23.55
2018-07-21T16:40:38.047Z,23.49
2018-07-21T16:41:38.145Z,23.45
2018-07-21T16:42:38.111Z,23.47
2018-07-21T16:43:38.158Z,23.49
2018-07-21T16:44:38.078Z,23.54
2018-07-21T16:45:38.070Z,23.39
2018-07-21T16:46:38.132Z,23.42
2018-07-21T16:47:38.066Z,23.28
2018-07-21T16:48:38.059Z,23.33
2018-07-21T16:49:38.097Z,23.54
2018-07-21T16:50:38.055Z,23.62
2018-07-21T16:51:38.043Z,23.66
2018-07-21T16:52:38.094Z,23.58
2018-07-21T16:53:38.124Z,23.52
2018-07-21T16:54:38.078Z,23.59
2018-07-21T16:55:38.081Z,23.48
2018-07-21T16:56:38.747Z,23.59
2018-07-21T16:57:38.193Z,23.52
2018-07-21T16:58:38.104Z,23.56
2018-07-21T16:59:38.104Z,23.49